Latest Weather Observations for Kadina

IDS60801

Issued at 5:01 am CDT Friday 31 March 2017 (issued every 30 minutes, with the page automatically refreshed every 10 minutes)

About weather observations | Map of weather stations | Latest weather observations for SA | Other Formats
Station Details ID: 022050 Name: KADINA AWS Lat: -33.97 Lon: 137.66 Height: 41.14 m
Data from the previous 72 hours. | See also: Recent months at Kadina
Date/Time
CDT
Temp
°C
App
Temp
°C
Dew
Point
°C
Rel
Hum
%
Delta-T
°C
Wind Press
QNH
hPa
Press
MSL
hPa
Rain since
9am
mm
Dir  Spd
km/h
Gust
km/h
Spd
kts
Gust
kts
31/05:00am 12.5 12.2 8.6 77 1.9 CALM 0 0 0 0 1023.8 1023.7 0.0
31/04:30am 12.7 12.4 8.6 76 2.0 CALM 0 0 0 0 1023.7 1023.6 0.0
31/04:00am 12.5 11.0 8.6 77 1.9 ESE 6 7 3 4 1023.7 1023.6 0.0
31/03:30am 12.0 10.6 8.8 81 1.6 ESE 6 7 3 4 1023.8 1023.7 0.0
31/03:00am 11.8 10.9 7.9 77 1.9 ESE 2 7 1 4 1023.8 1023.7 0.0
31/02:30am 11.3 9.6 8.2 81 1.5 ESE 7 7 4 4 1023.8 1023.7 0.0
31/02:00am 10.9 8.7 8.0 82 1.4 ESE 9 9 5 5 1024.2 1024.1 0.0
31/01:30am 9.6 7.2 6.9 83 1.3 E 9 11 5 6 1024.4 1024.3 0.0
31/01:00am 9.4 6.9 6.5 82 1.3 ESE 9 9 5 5 1024.3 1024.2 0.0
31/12:30am 9.8 7.2 6.3 79 1.6 SE 9 11 5 6 1024.4 1024.3 0.0
31/12:00am 11.0 6.9 6.4 73 2.2 ESE 17 26 9 14 1024.4 1024.3 0.0
 
Date/Time
CDT
Temp
°C
App
Temp
°C
Dew
Point
°C
Rel
Hum
%
Delta-T
°C
Wind Press
QNH
hPa
Press
MSL
hPa
Rain since
9am
mm
Dir  Spd
km/h
Gust
km/h
Spd
kts
Gust
kts
30/11:30pm 12.4 8.2 7.3 71 2.5 SSE 19 22 10 12 1024.2 1024.1 0.0
30/11:00pm 11.8 7.9 7.1 73 2.3 SSE 17 19 9 10 1024.3 1024.2 0.0
30/10:30pm 12.6 8.7 7.3 70 2.6 SSE 17 20 9 11 1024.5 1024.4 0.0
30/10:00pm 13.1 9.3 7.5 69 2.7 SSE 17 20 9 11 1024.3 1024.2 0.0
30/09:30pm 13.5 9.3 7.3 66 3.0 SSE 19 22 10 12 1024.4 1024.3 0.0
30/09:00pm 14.2 10.3 7.0 62 3.5 SSE 17 20 9 11 1024.4 1024.3 0.0
30/08:30pm 16.2 12.7 7.4 56 4.4 S 15 22 8 12 1024.2 1024.1 0.0
30/08:00pm 16.6 12.9 7.8 56 4.4 SSE 17 24 9 13 1023.9 1023.8 0.0
30/07:30pm 16.4 11.7 7.6 56 4.4 SSW 22 32 12 17 1023.5 1023.4 0.0
30/07:00pm 16.9 11.4 7.5 54 4.7 SSW 26 35 14 19 1023.3 1023.2 0.0
30/06:30pm 17.7 10.8 6.6 48 5.5 SSW 32 43 17 23 1023.2 1023.1 0.0
30/06:00pm 18.5 11.5 6.0 44 6.1 SSW 32 43 17 23 1023.1 1023.0 0.0
30/05:30pm 19.0 12.0 5.8 42 6.5 SW 32 41 17 22 1022.9 1022.8 0.0
30/05:00pm 19.8 13.2 6.2 41 6.8 SW 30 37 16 20 1023.2 1023.1 0.0
30/04:30pm 20.0 13.1 4.5 36 7.5 SW 30 39 16 21 1023.1 1023.0 0.0
30/04:00pm 20.5 14.1 5.3 37 7.5 SW 28 44 15 24 1022.8 1022.7 0.0
30/03:30pm 20.4 13.4 4.0 34 7.8 SW 30 43 16 23 1023.0 1022.9 0.0
30/03:00pm 20.5 13.8 3.7 33 8.0 SW 28 44 15 24 1022.9 1022.8 0.0
30/02:44pm 20.1 13.3 3.3 33 7.9 SW 28 46 15 25 1022.9 1022.8 0.0
30/02:30pm 20.9 14.3 4.0 33 8.1 SSW 28 41 15 22 1023.1 1023.0 0.0
30/02:00pm 20.0 12.9 3.7 34 7.8 SSW 30 44 16 24 1023.4 1023.3 0.0
30/01:30pm 20.4 13.9 6.4 40 7.0 SW 30 48 16 26 1023.7 1023.6 0.0
30/01:27pm 19.9 13.6 5.9 40 7.0 SW 28 48 15 26 1023.6 1023.5 0.0
30/01:00pm 19.7 13.0 5.4 39 7.0 SW 30 43 16 23 1024.1 1024.0 0.0
30/12:30pm 18.6 12.6 5.1 41 6.5 SSW 26 37 14 20 1024.3 1024.2 0.0
30/12:00pm 19.3 14.1 7.1 45 6.1 SSW 24 35 13 19 1024.1 1024.0 0.0
30/11:30am 18.3 12.8 7.7 50 5.4 SSW 26 39 14 21 1024.2 1024.1 0.0
30/11:00am 17.4 11.7 8.3 55 4.7 S 28 33 15 18 1023.9 1023.8 0.0
30/10:30am 16.5 10.5 8.5 59 4.1 S 30 35 16 19 1023.7 1023.6 0.0
30/10:00am 15.7 9.8 9.1 65 3.4 S 30 41 16 22 1023.5 1023.4 0.0
30/09:30am 15.0 9.9 9.1 68 3.0 S 26 35 14 19 1023.3 1023.2 0.0
30/09:00am 13.6 9.7 9.5 76 2.1 S 20 28 11 15 1023.0 1022.9 2.4
30/08:30am 12.2 8.2 8.9 80 1.6 SSE 20 28 11 15 1022.7 1022.6 2.4
30/08:00am 9.0 5.6 7.8 92 0.6 SE 15 17 8 9 1022.2 1022.1 2.4
30/07:30am 7.0 3.9 5.6 91 0.6 SE 11 13 6 7 1021.7 1021.6 2.4
30/07:00am 7.1 4.0 5.6 90 0.7 SE 11 13 6 7 1021.3 1021.2 2.4
30/06:30am 7.9 4.9 6.0 88 0.9 SE 11 13 6 7 1021.1 1021.0 2.4
30/06:00am 9.2 7.2 7.2 87 0.9 ESE 7 9 4 5 1020.7 1020.6 2.4
30/05:30am 10.5 7.6 8.3 86 1.1 S 13 15 7 8 1020.6 1020.5 2.4
30/05:00am 10.5 6.3 7.6 82 1.4 SSE 19 20 10 11 1020.1 1020.0 2.2
30/04:30am 10.4 6.6 7.6 83 1.3 SSE 17 20 9 11 1019.8 1019.7 2.2
30/04:00am 10.1 6.8 8.0 87 1.0 SSE 15 19 8 10 1019.6 1019.5 2.2
30/03:30am 9.9 7.3 7.8 87 1.0 SSE 11 11 6 6 1019.6 1019.5 2.2
30/03:00am 11.0 8.6 8.6 85 1.2 SSE 11 15 6 8 1019.5 1019.4 2.2
30/02:30am 11.9 10.8 10.0 88 1.0 WSW 6 9 3 5 1019.6 1019.5 1.8
30/02:00am 11.6 9.0 9.5 87 1.1 S 13 17 7 9 1019.4 1019.3 1.6
30/01:30am 11.8 10.0 9.4 85 1.2 SSW 9 13 5 7 1019.6 1019.5 1.4
30/01:00am 12.0 10.6 9.4 84 1.3 SW 7 9 4 5 1019.2 1019.1 1.4
30/12:30am 10.5 8.3 7.9 84 1.3 SSE 9 9 5 5 1019.2 1019.1 0.0
30/12:00am 10.8 7.5 8.0 83 1.4 SSE 15 17 8 9 1018.9 1018.8 0.0
 
Date/Time
CDT
Temp
°C
App
Temp
°C
Dew
Point
°C
Rel
Hum
%
Delta-T
°C
Wind Press
QNH
hPa
Press
MSL
hPa
Rain since
9am
mm
Dir  Spd
km/h
Gust
km/h
Spd
kts
Gust
kts
29/11:30pm 12.0 8.1 8.5 79 1.7 S 19 22 10 12 1018.8 1018.7 0.0
29/11:00pm 12.8 9.1 9.4 80 1.7 S 19 28 10 15 1018.8 1018.7 0.0
29/10:30pm 12.1 9.7 10.0 87 1.1 SSE 13 15 7 8 1018.5 1018.4 0.0
29/10:00pm 12.5 9.8 10.2 86 1.2 S 15 20 8 11 1018.2 1018.1 0.0
29/09:30pm 12.9 9.8 10.4 85 1.3 S 17 20 9 11 1017.8 1017.7 0.0
29/09:00pm 13.4 8.4 10.9 85 1.3 SSW 28 39 15 21 1017.5 1017.4 0.0
29/08:45pm 13.2 5.1 10.9 86 1.2 SSW 44 61 24 33 1017.2 1017.1 0.0
29/08:37pm 13.7 3.4 10.9 83 1.5 SW 56 74 30 40 1016.9 1016.8 0.0
29/08:30pm 15.3 7.6 10.1 71 2.7 SW 41 72 22 39 1016.6 1016.5 0.0
29/08:27pm 16.7 10.1 8.7 59 4.1 SW 33 67 18 36 1016.6 1016.5 0.0
29/08:00pm 15.7 9.2 9.1 65 3.4 SSW 33 46 18 25 1016.3 1016.2 0.0
29/07:30pm 15.7 8.9 10.5 71 2.7 SW 37 56 20 30 1015.6 1015.5 0.0
29/07:13pm 16.7 9.9 9.4 62 3.8 SW 35 57 19 31 1015.0 1014.9 0.0
29/07:00pm 16.7 11.0 9.9 64 3.6 SW 30 39 16 21 1015.0 1014.9 0.0
29/06:30pm 16.8 13.5 12.7 77 2.3 SSW 22 33 12 18 1014.5 1014.4 0.0
29/06:05pm 15.5 10.1 12.8 84 1.5 SW 33 52 18 28 1014.3 1014.2 0.0
29/06:00pm 15.9 9.1 12.1 78 2.1 SW 39 52 21 28 1014.2 1014.1 0.0
29/05:30pm 18.3 12.5 10.7 61 4.1 SW 32 41 17 22 1013.7 1013.6 0.0
29/05:00pm 17.5 11.2 12.4 72 2.8 SSW 37 50 20 27 1013.5 1013.4 0.0
29/04:45pm 18.1 12.9 12.8 71 3.0 SW 32 52 17 28 1013.2 1013.1 0.0
29/04:30pm 19.3 13.3 12.1 63 4.0 SW 35 44 19 24 1013.0 1012.9 0.0
29/04:00pm 19.8 13.9 12.3 62 4.2 SSW 35 50 19 27 1012.7 1012.6 0.0
29/03:30pm 19.3 11.9 14.1 72 3.0 SSW 46 56 25 30 1012.7 1012.6 0.0
29/03:18pm 17.3 10.9 14.2 82 1.8 SSW 41 59 22 32 1012.8 1012.7 0.0
29/03:00pm 17.5 9.7 14.2 81 1.9 SSW 48 61 26 33 1012.4 1012.3 0.0
29/02:47pm 19.1 12.9 14.8 76 2.5 SSW 41 61 22 33 1012.1 1012.0 0.0
29/02:30pm 20.7 14.0 16.1 75 2.8 WSW 46 57 25 31 1011.7 1011.5 0.0
29/02:14pm 21.1 14.6 15.2 69 3.5 W 43 83 23 45 1011.2 1011.0 0.0
29/02:13pm 22.4 16.6 15.0 63 4.4 W 39 83 21 45 1011.4 1011.2 0.0
29/02:00pm 23.5 17.6 13.7 54 5.7 WNW 37 54 20 29 1011.5 1011.3 0.0
29/01:30pm 23.4 18.2 14.4 57 5.3 WNW 35 44 19 24 1011.9 1011.8 0.0
29/01:00pm 22.8 17.7 13.8 57 5.2 WNW 33 46 18 25 1012.3 1012.2 0.0
29/12:30pm 22.5 17.8 14.4 60 4.8 WNW 32 43 17 23 1012.8 1012.7 0.0
29/12:00pm 21.2 16.7 13.9 63 4.2 WNW 30 39 16 21 1012.8 1012.7 0.0
29/11:30am 20.8 16.2 13.5 63 4.2 WNW 30 43 16 23 1012.9 1012.8 0.0
29/11:00am 20.4 16.4 13.1 63 4.2 WNW 26 35 14 19 1013.0 1012.9 0.0
29/10:30am 20.2 16.0 13.4 65 3.9 WNW 28 41 15 22 1013.0 1012.9 0.0
29/10:00am 19.9 16.5 13.6 67 3.6 WNW 24 35 13 19 1013.0 1012.9 0.0
29/09:30am 19.5 16.7 14.3 72 3.0 NW 22 30 12 16 1012.9 1012.8 0.0
29/09:00am 19.2 16.8 13.8 71 3.1 WNW 19 24 10 13 1012.7 1012.6 0.0
29/08:30am 16.6 15.5 13.1 80 2.0 WNW 11 13 6 7 1012.6 1012.5 0.0
29/08:00am 11.9 12.0 10.1 89 0.9 CALM 0 6 0 3 1012.5 1012.4 0.0
29/07:30am 9.6 7.8 7.9 89 0.8 NNE 7 9 4 5 1012.3 1012.2 0.0
29/07:00am 9.4 7.5 7.5 88 0.9 ENE 7 9 4 5 1012.2 1012.1 0.0
29/06:30am 9.9 8.2 8.2 89 0.8 ENE 7 9 4 5 1012.0 1011.9 0.0
29/06:00am 10.3 8.6 8.4 88 0.9 E 7 7 4 4 1011.7 1011.5 0.0
29/05:30am 10.3 8.6 8.2 87 1.0 ENE 7 9 4 5 1011.5 1011.3 0.0
29/05:00am 11.3 9.4 8.9 85 1.2 NE 9 11 5 6 1011.6 1011.4 0.0
29/04:30am 11.5 9.7 9.4 87 1.1 NE 9 13 5 7 1011.5 1011.3 0.0
29/04:00am 10.8 8.9 8.9 88 0.9 ENE 9 11 5 6 1011.8 1011.7 0.0
29/03:30am 10.5 8.9 8.6 88 0.9 ENE 7 9 4 5 1012.1 1012.0 0.0
29/03:00am 10.9 8.9 8.8 87 1.0 E 9 11 5 6 1012.1 1012.0 0.0
29/02:30am 11.1 8.7 8.8 86 1.1 ESE 11 11 6 6 1012.0 1011.9 0.0
29/02:00am 11.7 9.5 9.3 85 1.2 SSE 11 13 6 7 1012.2 1012.1 0.0
29/01:30am 12.0 10.2 9.4 84 1.3 ESE 9 9 5 5 1012.5 1012.4 0.0
29/01:00am 12.0 10.2 9.4 84 1.3 SE 9 9 5 5 1012.8 1012.7 0.0
29/12:30am 13.0 11.6 9.6 80 1.7 SE 7 9 4 5 1013.1 1013.0 0.0
29/12:00am 13.9 12.8 10.5 80 1.8 SE 7 11 4 6 1013.3 1013.2 0.0
 
Date/Time
CDT
Temp
°C
App
Temp
°C
Dew
Point
°C
Rel
Hum
%
Delta-T
°C
Wind Press
QNH
hPa
Press
MSL
hPa
Rain since
9am
mm
Dir  Spd
km/h
Gust
km/h
Spd
kts
Gust
kts
28/11:30pm 15.0 13.3 11.2 78 2.0 SSE 11 13 6 7 1013.5 1013.4 0.0
28/11:00pm 15.9 13.2 11.7 76 2.3 SSE 17 20 9 11 1013.7 1013.6 0.0
28/10:30pm 15.8 13.5 11.6 76 2.3 SSE 15 17 8 9 1013.8 1013.7 0.0
28/10:00pm 15.4 12.9 11.2 76 2.2 S 15 19 8 10 1014.0 1013.9 0.0
28/09:30pm 16.2 13.5 11.6 74 2.5 S 17 19 9 10 1013.9 1013.8 0.0
28/09:00pm 17.0 15.1 11.9 72 2.8 SSW 13 15 7 8 1013.6 1013.5 0.0
28/08:30pm 17.1 15.4 11.2 68 3.2 SW 11 15 6 8 1013.4 1013.3 0.0
28/08:00pm 18.6 17.3 11.4 63 3.9 WSW 9 11 5 6 1012.9 1012.8 0.0
28/07:30pm 19.9 18.2 11.1 57 4.8 NW 11 11 6 6 1012.8 1012.7 0.0
28/07:00pm 22.2 21.1 10.0 46 6.6 N 6 9 3 5 1012.6 1012.5 0.0
28/06:30pm 23.1 22.9 10.5 45 7.0 NNE 2 11 1 6 1012.6 1012.5 0.0
28/06:00pm 23.3 22.3 10.4 44 7.1 NE 6 9 3 5 1012.8 1012.7 0.0
28/05:30pm 23.3 21.5 10.7 45 7.0 WSW 11 15 6 8 1013.0 1012.9 0.0
28/05:00pm 23.3 21.5 10.7 45 7.0 WSW 11 17 6 9 1013.2 1013.1 0.0
28/04:30pm 22.8 20.0 9.9 44 7.0 WSW 15 20 8 11 1013.4 1013.3 0.0
28/04:00pm 22.9 20.6 10.3 45 6.9 WNW 13 22 7 12 1013.6 1013.5 0.0
28/03:30pm 22.7 20.0 10.2 45 6.8 W 15 22 8 12 1014.0 1013.9 0.0
28/03:00pm 22.9 20.6 10.3 45 6.9 NW 13 26 7 14 1014.2 1014.1 0.0
28/02:30pm 22.0 19.0 10.8 49 6.2 NW 17 20 9 11 1014.6 1014.5 0.0
28/02:00pm 21.5 17.9 10.0 48 6.2 NW 19 30 10 16 1015.1 1015.0 0.0
28/01:30pm 21.7 18.1 9.9 47 6.4 WNW 19 24 10 13 1015.4 1015.3 0.0
28/01:00pm 21.5 18.9 10.6 50 6.0 WNW 15 28 8 15 1015.9 1015.8 0.0
28/12:30pm 21.6 18.5 11.6 53 5.6 WNW 19 26 10 14 1016.3 1016.2 0.0
28/12:00pm 21.8 18.8 10.6 49 6.1 WNW 17 24 9 13 1016.5 1016.4 0.0
28/11:30am 21.1 18.6 11.2 53 5.5 WSW 15 19 8 10 1017.0 1016.9 0.0
28/11:00am 20.9 17.6 11.0 53 5.4 NW 19 24 10 13 1017.1 1017.0 0.0
28/10:30am 21.0 18.7 11.9 56 5.1 NNW 15 24 8 13 1017.1 1017.0 0.0
28/10:00am 19.8 18.9 12.6 63 4.1 NNW 9 15 5 8 1017.1 1017.0 0.0
28/09:30am 19.1 18.1 12.4 65 3.7 NE 9 11 5 6 1017.1 1017.0 0.0
28/09:00am 16.9 16.1 11.8 72 2.8 NE 7 9 4 5 1016.9 1016.8 0.0
28/08:30am 13.4 12.5 10.8 84 1.4 E 6 7 3 4 1016.6 1016.5 0.0
28/08:00am 10.3 8.4 8.9 91 0.7 E 9 9 5 5 1016.4 1016.3 0.0
28/07:30am 9.8 7.7 8.2 90 0.8 E 9 11 5 6 1016.3 1016.2 0.0
28/07:00am 10.1 8.0 8.2 88 0.9 E 9 11 5 6 1016.3 1016.2 0.0
28/06:30am 10.7 8.7 8.6 87 1.0 ENE 9 11 5 6 1016.0 1015.9 0.0
28/06:00am 11.1 9.2 9.0 87 1.0 ENE 9 11 5 6 1016.0 1015.9 0.0
28/05:30am 11.1 9.2 9.0 87 1.0 ENE 9 11 5 6 1015.8 1015.7 0.0

Other Formats:

Comma delimited format used in spreadsheet applications
http://www.bom.gov.au/fwo/IDS60801/IDS60801.94685.axf

JavaScript Object Notation format (JSON) in row-major order
http://www.bom.gov.au/fwo/IDS60801/IDS60801.94685.json